createdAt,value
2019-02-12T00:00:12.532Z,3.67
2019-02-12T00:02:41.274Z,3.10
2019-02-12T00:05:09.727Z,3.50
2019-02-12T00:07:38.167Z,3.37
2019-02-12T00:10:07.056Z,2.83
2019-02-12T00:12:35.490Z,2.83
2019-02-12T00:15:04.780Z,3.53
2019-02-12T00:17:33.210Z,3.17
2019-02-12T00:20:01.663Z,3.00
2019-02-12T00:22:30.103Z,2.97
2019-02-12T00:24:59.063Z,4.00
2019-02-12T00:27:27.545Z,2.50
2019-02-12T00:29:55.999Z,3.33
2019-02-12T00:32:24.435Z,3.40
2019-02-12T00:34:52.886Z,2.50
2019-02-12T00:37:21.420Z,3.23
2019-02-12T00:39:49.863Z,2.73
2019-02-12T00:42:18.305Z,3.00
2019-02-12T00:44:46.766Z,3.00
2019-02-12T00:47:15.211Z,2.70
2019-02-12T00:49:43.663Z,3.07
2019-02-12T00:52:12.105Z,2.83
2019-02-12T00:54:40.557Z,2.20
2019-02-12T00:57:08.999Z,3.90
2019-02-12T00:59:37.447Z,2.33
2019-02-12T01:02:05.917Z,2.57
2019-02-12T01:04:34.367Z,2.77
2019-02-12T01:07:02.871Z,2.33
2019-02-12T01:09:31.320Z,2.80
2019-02-12T01:11:59.758Z,3.57
2019-02-12T01:14:28.218Z,2.77
2019-02-12T01:16:56.654Z,2.43
2019-02-12T01:19:25.808Z,2.90
2019-02-12T01:21:54.254Z,2.77
2019-02-12T01:24:22.699Z,3.00
2019-02-12T01:26:51.131Z,2.47
2019-02-12T01:29:19.559Z,2.73
2019-02-12T01:31:48.016Z,2.93
2019-02-12T01:34:16.464Z,2.77
2019-02-12T01:36:44.912Z,2.17
2019-02-12T01:39:13.350Z,2.70
2019-02-12T01:41:41.820Z,2.27
2019-02-12T01:44:10.292Z,1.93
2019-02-12T01:46:38.772Z,2.37
2019-02-12T01:49:07.260Z,3.17
2019-02-12T01:51:35.703Z,2.20
2019-02-12T01:54:04.142Z,2.37
2019-02-12T01:56:32.608Z,3.10
2019-02-12T01:59:01.051Z,2.70
2019-02-12T02:01:29.505Z,2.97
2019-02-12T02:03:57.931Z,2.37
2019-02-12T02:06:26.382Z,2.40
2019-02-12T02:08:55.752Z,2.40
2019-02-12T02:11:24.210Z,2.87
2019-02-12T02:13:52.647Z,3.20
2019-02-12T02:16:21.090Z,2.93
2019-02-12T02:18:49.527Z,3.20
2019-02-12T02:21:43.932Z,2.63
2019-02-12T02:24:07.521Z,2.57
2019-02-12T02:26:35.990Z,2.53
2019-02-12T02:29:04.429Z,2.67
2019-02-12T02:31:32.886Z,3.60
2019-02-12T02:34:01.339Z,3.37
2019-02-12T02:36:29.796Z,3.20
2019-02-12T02:38:58.307Z,2.90
2019-02-12T02:41:26.761Z,2.50
2019-02-12T02:43:55.954Z,2.33
2019-02-12T02:46:24.443Z,2.40
2019-02-12T02:48:52.883Z,2.77
2019-02-12T02:51:21.345Z,2.30
2019-02-12T02:53:49.779Z,3.57
2019-02-12T02:56:18.250Z,2.77
2019-02-12T02:58:46.742Z,2.97
2019-02-12T03:01:15.201Z,2.83
2019-02-12T03:03:43.632Z,2.73
2019-02-12T03:06:12.191Z,3.17
2019-02-12T03:08:40.664Z,2.80
2019-02-12T03:11:09.159Z,2.10
2019-02-12T03:13:40.897Z,2.13
2019-02-12T03:16:09.349Z,2.00
2019-02-12T03:18:37.779Z,2.83
2019-02-12T03:21:06.230Z,2.83
2019-02-12T03:23:34.672Z,3.40
2019-02-12T03:26:03.132Z,2.47
2019-02-12T03:28:31.562Z,2.33
2019-02-12T03:31:00.024Z,2.97
2019-02-12T03:33:28.519Z,3.03
2019-02-12T03:35:56.959Z,3.47
2019-02-12T03:38:26.040Z,2.60
2019-02-12T03:40:54.479Z,2.77
2019-02-12T03:43:22.935Z,3.20
2019-02-12T03:45:51.375Z,2.57
2019-02-12T03:48:21.258Z,2.23
2019-02-12T03:50:49.892Z,2.70
2019-02-12T03:53:18.327Z,2.60
2019-02-12T03:55:46.836Z,2.73
2019-02-12T03:58:15.287Z,2.60
2019-02-12T04:00:43.720Z,2.20
2019-02-12T04:03:12.250Z,2.50
2019-02-12T04:05:40.686Z,2.07
2019-02-12T04:08:09.143Z,2.90
2019-02-12T04:10:37.597Z,2.43
2019-02-12T04:13:06.067Z,2.40
2019-02-12T04:15:34.639Z,2.33
2019-02-12T04:18:03.079Z,2.30
2019-02-12T04:20:31.529Z,2.77
2019-02-12T04:22:59.985Z,2.60
2019-02-12T04:25:28.430Z,2.60
2019-02-12T04:27:56.893Z,3.27
2019-02-12T04:30:26.151Z,2.27
2019-02-12T04:32:54.600Z,3.07
2019-02-12T04:35:23.103Z,3.33
2019-02-12T04:37:51.557Z,2.57
2019-02-12T04:40:20.070Z,2.83
2019-02-12T04:42:48.519Z,3.03
2019-02-12T04:45:16.954Z,1.77
2019-02-12T04:47:45.399Z,2.07
2019-02-12T04:50:15.077Z,2.33
2019-02-12T04:52:43.605Z,2.67
2019-02-12T04:55:12.551Z,2.40
2019-02-12T04:57:40.996Z,2.63
2019-02-12T05:00:16.767Z,2.00
2019-02-12T05:02:45.583Z,2.60
2019-02-12T05:05:14.034Z,2.80
2019-02-12T05:07:42.489Z,2.23
2019-02-12T05:10:14.366Z,2.13
2019-02-12T05:12:42.815Z,2.07
2019-02-12T05:15:11.324Z,2.33
2019-02-12T05:17:39.782Z,2.60
2019-02-12T05:20:11.291Z,2.23
2019-02-12T05:22:43.475Z,2.77
2019-02-12T05:25:13.580Z,2.43
2019-02-12T05:27:42.033Z,2.70
2019-02-12T05:30:12.713Z,2.53
2019-02-12T05:32:41.175Z,2.73
2019-02-12T05:35:09.683Z,2.40
2019-02-12T05:37:38.131Z,2.20
2019-02-12T05:40:09.005Z,2.27
2019-02-12T05:42:37.475Z,2.27
2019-02-12T05:45:13.214Z,1.87
2019-02-12T05:47:41.657Z,2.40
2019-02-12T05:50:14.499Z,2.20
2019-02-12T05:52:53.259Z,2.37
2019-02-12T05:55:13.283Z,2.37
2019-02-12T05:57:41.728Z,2.23
2019-02-12T06:00:20.035Z,2.23
2019-02-12T06:02:48.467Z,3.23
2019-02-12T06:05:29.991Z,2.87
2019-02-12T06:07:58.639Z,2.97
2019-02-12T06:10:27.084Z,2.07
2019-02-12T06:12:56.443Z,2.17
2019-02-12T06:15:24.898Z,2.30
2019-02-12T06:17:53.404Z,2.10
2019-02-12T06:20:21.846Z,2.87
2019-02-12T06:22:50.283Z,2.03
2019-02-12T06:25:18.731Z,2.83
2019-02-12T06:27:47.168Z,2.17
2019-02-12T06:30:15.611Z,2.40
2019-02-12T06:32:44.052Z,2.20
2019-02-12T06:35:12.502Z,2.20
2019-02-12T06:37:40.943Z,2.47
2019-02-12T06:40:10.634Z,2.30
2019-02-12T06:42:39.083Z,2.63
2019-02-12T06:45:10.835Z,2.37
2019-02-12T06:47:39.278Z,2.80
2019-02-12T06:50:12.751Z,2.03
2019-02-12T06:52:41.205Z,2.33
2019-02-12T06:55:10.988Z,2.50
2019-02-12T06:57:39.447Z,2.40
2019-02-12T07:00:15.525Z,4.47
2019-02-12T07:03:10.244Z,3.83
2019-02-12T07:05:41.804Z,5.47
2019-02-12T07:08:31.099Z,2.77
2019-02-12T07:11:08.500Z,4.10
2019-02-12T07:13:42.895Z,2.23
2019-02-12T07:16:14.415Z,2.57
2019-02-12T07:18:51.635Z,2.90
2019-02-12T07:21:25.834Z,2.97
2019-02-12T07:23:57.365Z,3.10
2019-02-12T07:26:38.445Z,3.47
2019-02-12T07:29:24.888Z,3.87
2019-02-12T07:32:15.322Z,3.00
2019-02-12T07:34:46.955Z,3.07
2019-02-12T07:37:27.311Z,3.10
2019-02-12T07:40:02.264Z,2.40
2019-02-12T07:42:39.651Z,2.97
2019-02-12T07:45:17.080Z,2.80
2019-02-12T07:48:09.666Z,2.90
2019-02-12T07:50:46.811Z,3.10
2019-02-12T07:53:30.773Z,3.37
2019-02-12T07:55:57.119Z,2.70
2019-02-12T07:58:50.756Z,3.20
2019-02-12T08:01:38.822Z,3.13
2019-02-12T08:04:10.344Z,2.47
2019-02-12T08:06:42.011Z,2.87
2019-02-12T08:09:34.579Z,2.40
2019-02-12T08:12:21.051Z,2.53
2019-02-12T08:14:58.385Z,2.90
2019-02-12T08:17:35.063Z,2.33
2019-02-12T08:20:26.456Z,2.80
2019-02-12T08:23:09.650Z,3.47
2019-02-12T08:25:47.003Z,3.83
2019-02-12T08:28:40.980Z,2.67
2019-02-12T08:31:23.907Z,3.33
2019-02-12T08:34:16.284Z,3.27
2019-02-12T08:36:56.984Z,2.80
2019-02-12T08:39:49.587Z,3.70
2019-02-12T08:42:48.410Z,3.20
2019-02-12T08:45:35.075Z,2.33
2019-02-12T08:48:18.211Z,2.70
2019-02-12T08:50:55.733Z,2.80
2019-02-12T08:53:50.486Z,2.53
2019-02-12T08:56:22.975Z,2.23
2019-02-12T08:59:28.038Z,2.50
2019-02-12T09:02:11.731Z,2.67
2019-02-12T09:04:51.824Z,2.37
2019-02-12T09:07:35.315Z,2.80
2019-02-12T09:10:34.377Z,3.27
2019-02-12T09:13:17.948Z,2.57
2019-02-12T09:16:00.855Z,2.43
2019-02-12T09:18:40.947Z,1.77
2019-02-12T09:21:36.518Z,2.10
2019-02-12T09:24:25.828Z,2.17
2019-02-12T09:27:29.024Z,2.10
2019-02-12T09:30:27.523Z,2.33
2019-02-12T09:33:11.885Z,2.53
2019-02-12T09:36:05.691Z,3.13
2019-02-12T09:38:48.555Z,2.30
2019-02-12T09:41:25.986Z,2.03
2019-02-12T09:44:18.906Z,2.27
2019-02-12T09:46:50.418Z,2.27
2019-02-12T09:49:31.115Z,2.10
2019-02-12T09:52:16.923Z,2.57
2019-02-12T09:55:17.159Z,2.27
2019-02-12T09:58:00.393Z,3.20
2019-02-12T10:00:31.915Z,2.63
2019-02-12T10:03:23.180Z,2.30
2019-02-12T10:05:57.258Z,2.23
2019-02-12T10:08:28.785Z,1.80
2019-02-12T10:11:08.974Z,1.90
2019-02-12T10:14:01.699Z,2.77
2019-02-12T10:16:33.224Z,1.80
2019-02-12T10:19:07.410Z,2.07
2019-02-12T10:21:57.089Z,1.87
2019-02-12T10:24:31.555Z,2.07
2019-02-12T10:27:03.135Z,1.93
2019-02-12T10:29:40.155Z,1.97
2019-02-12T10:32:08.974Z,2.13
2019-02-12T10:34:37.707Z,2.00
2019-02-12T10:37:06.143Z,2.00
2019-02-12T10:39:34.601Z,1.77
2019-02-12T10:42:03.040Z,1.83
2019-02-12T10:44:31.479Z,1.93
2019-02-12T10:46:59.919Z,1.83
2019-02-12T10:49:28.371Z,2.07
2019-02-12T10:51:57.043Z,2.47
2019-02-12T10:54:28.050Z,2.27
2019-02-12T10:56:55.751Z,2.37
2019-02-12T10:59:24.199Z,2.27
2019-02-12T11:01:52.643Z,2.07
2019-02-12T11:04:22.354Z,2.10
2019-02-12T11:06:50.799Z,1.93
2019-02-12T11:09:19.253Z,1.87
2019-02-12T11:11:47.687Z,1.70
2019-02-12T11:14:16.131Z,1.70
2019-02-12T11:16:44.612Z,2.00
2019-02-12T11:19:13.062Z,1.60
2019-02-12T11:21:41.496Z,2.20
2019-02-12T11:24:09.944Z,2.10
2019-02-12T11:26:38.383Z,2.40
2019-02-12T11:29:06.818Z,1.53
2019-02-12T11:31:35.267Z,1.90
2019-02-12T11:34:03.698Z,1.70
2019-02-12T11:36:32.148Z,1.80
2019-02-12T11:39:00.631Z,1.70
2019-02-12T11:41:29.079Z,1.83
2019-02-12T11:44:16.852Z,2.57
2019-02-12T11:46:45.311Z,1.90
2019-02-12T11:49:13.743Z,1.77
2019-02-12T11:51:42.195Z,1.77
2019-02-12T11:54:10.636Z,1.97
2019-02-12T11:56:39.083Z,2.23
2019-02-12T11:59:07.525Z,1.83
2019-02-12T12:01:35.972Z,1.80
2019-02-12T12:04:04.412Z,2.10
2019-02-12T12:06:32.859Z,2.07
2019-02-12T12:09:01.319Z,2.37
2019-02-12T12:11:29.766Z,1.60
2019-02-12T12:13:58.204Z,1.40
2019-02-12T12:16:27.217Z,1.83
2019-02-12T12:18:55.655Z,1.73
2019-02-12T12:21:24.103Z,1.90
2019-02-12T12:23:52.538Z,1.90
2019-02-12T12:26:20.991Z,2.00
2019-02-12T12:28:49.427Z,2.30
2019-02-12T12:31:17.871Z,1.57
2019-02-12T12:33:46.316Z,1.63
2019-02-12T12:36:14.756Z,1.70
2019-02-12T12:38:43.781Z,1.70
2019-02-12T12:41:12.315Z,1.70
2019-02-12T12:43:40.755Z,1.53
2019-02-12T12:46:09.197Z,1.80
2019-02-12T12:48:37.702Z,1.40
2019-02-12T12:51:06.156Z,1.90
2019-02-12T12:53:34.590Z,1.67
2019-02-12T12:56:03.047Z,1.70
2019-02-12T12:58:31.514Z,1.87
2019-02-12T13:01:00.015Z,1.50
2019-02-12T13:03:28.524Z,1.40
2019-02-12T13:05:57.340Z,1.60
2019-02-12T13:08:25.810Z,1.70
2019-02-12T13:10:54.268Z,1.50
2019-02-12T13:13:22.707Z,1.40
2019-02-12T13:15:51.158Z,1.50
2019-02-12T13:18:19.582Z,1.60
2019-02-12T13:20:48.022Z,1.47
2019-02-12T13:23:16.477Z,1.70
2019-02-12T13:25:44.912Z,1.57
2019-02-12T13:28:13.360Z,1.50
2019-02-12T13:30:41.805Z,1.70
2019-02-12T13:33:10.248Z,1.63
2019-02-12T13:35:38.695Z,2.00
2019-02-12T13:38:07.149Z,1.33
2019-02-12T13:40:35.650Z,1.70
2019-02-12T13:43:04.166Z,1.30
2019-02-12T13:45:32.607Z,1.80
2019-02-12T13:48:01.058Z,1.60
2019-02-12T13:50:29.494Z,1.53
2019-02-12T13:52:57.945Z,1.80
2019-02-12T13:55:27.305Z,1.70
2019-02-12T13:57:55.813Z,2.00
2019-02-12T14:00:24.248Z,2.00
2019-02-12T14:02:52.697Z,1.90
2019-02-12T14:05:25.899Z,2.30
2019-02-12T14:07:54.416Z,1.87
2019-02-12T14:10:22.948Z,2.30
2019-02-12T14:12:51.398Z,2.20
2019-02-12T14:15:19.835Z,1.80
2019-02-12T14:17:48.283Z,1.90
2019-02-12T14:20:17.766Z,2.00
2019-02-12T14:22:46.245Z,2.97
2019-02-12T14:25:15.675Z,2.33
2019-02-12T14:27:44.119Z,1.93
2019-02-12T14:30:15.160Z,2.30
2019-02-12T14:32:43.599Z,2.17
2019-02-12T14:35:12.618Z,2.27
2019-02-12T14:37:41.191Z,2.20
2019-02-12T14:40:11.735Z,1.83
2019-02-12T14:42:41.080Z,1.60
2019-02-12T14:45:16.947Z,2.10
2019-02-12T14:47:45.404Z,2.60
2019-02-12T14:50:15.075Z,2.10
2019-02-12T14:52:43.531Z,2.40
2019-02-12T14:55:11.960Z,2.13
2019-02-12T14:57:40.419Z,2.57
2019-02-12T15:00:14.631Z,1.87
2019-02-12T15:02:43.079Z,1.97
2019-02-12T15:05:11.517Z,2.30
2019-02-12T15:07:40.035Z,2.90
2019-02-12T15:10:11.488Z,2.03
2019-02-12T15:12:40.003Z,2.07
2019-02-12T15:15:11.779Z,1.97
2019-02-12T15:17:40.223Z,1.80
2019-02-12T15:20:12.779Z,1.87
2019-02-12T15:22:41.230Z,1.93
2019-02-12T15:25:10.815Z,2.27
2019-02-12T15:27:39.261Z,2.17
2019-02-12T15:30:10.801Z,2.10
2019-02-12T15:32:39.243Z,1.73
2019-02-12T15:35:09.427Z,1.90
2019-02-12T15:37:37.874Z,2.67
2019-02-12T15:40:09.395Z,2.20
2019-02-12T15:42:37.854Z,1.77
2019-02-12T15:45:09.791Z,2.17
2019-02-12T15:47:38.294Z,2.00
2019-02-12T15:50:09.487Z,2.03
2019-02-12T15:52:37.915Z,2.10
2019-02-12T15:55:09.283Z,3.00
2019-02-12T15:57:37.723Z,2.10
2019-02-12T16:00:19.998Z,2.10
2019-02-12T16:02:47.939Z,1.80
2019-02-12T16:05:16.380Z,2.33
2019-02-12T16:07:47.071Z,2.30
2019-02-12T16:10:21.798Z,2.57
2019-02-12T16:12:51.501Z,2.17
2019-02-12T16:15:24.434Z,2.37
2019-02-12T16:17:51.984Z,2.63
2019-02-12T16:20:20.423Z,2.90
2019-02-12T16:22:48.875Z,2.40
2019-02-12T16:25:17.302Z,2.13
2019-02-12T16:27:45.747Z,2.13
2019-02-12T16:30:20.914Z,2.50
2019-02-12T16:32:49.362Z,2.83
2019-02-12T16:35:18.252Z,2.17
2019-02-12T16:37:48.774Z,2.97
2019-02-12T16:40:20.384Z,2.40
2019-02-12T16:42:48.827Z,2.70
2019-02-12T16:45:23.275Z,3.03
2019-02-12T16:47:51.732Z,3.03
2019-02-12T16:50:20.216Z,2.53
2019-02-12T16:52:48.672Z,2.90
2019-02-12T16:55:17.166Z,2.73
2019-02-12T16:57:45.626Z,3.40
2019-02-12T17:00:16.307Z,3.10
2019-02-12T17:02:46.619Z,3.03
2019-02-12T17:05:15.414Z,3.07
2019-02-12T17:07:44.904Z,2.93
2019-02-12T17:10:13.792Z,3.10
2019-02-12T17:12:42.292Z,2.83
2019-02-12T17:15:12.951Z,2.60
2019-02-12T17:17:41.406Z,2.67
2019-02-12T17:20:23.908Z,3.30
2019-02-12T17:22:52.355Z,2.93
2019-02-12T17:25:22.433Z,3.33
2019-02-12T17:27:51.009Z,3.37
2019-02-12T17:30:19.528Z,4.70
2019-02-12T17:32:47.966Z,6.33
2019-02-12T17:35:16.741Z,3.20
2019-02-12T17:37:45.406Z,3.37
2019-02-12T17:40:15.671Z,3.40
2019-02-12T17:42:46.075Z,3.60
2019-02-12T17:45:19.852Z,3.03
2019-02-12T17:47:48.474Z,2.93
2019-02-12T17:50:18.802Z,3.67
2019-02-12T17:52:49.456Z,3.80
2019-02-12T17:55:18.203Z,3.30
2019-02-12T17:57:47.865Z,3.23
2019-02-12T18:00:20.435Z,3.50
2019-02-12T18:02:49.355Z,3.27
2019-02-12T18:05:18.103Z,2.90
2019-02-12T18:07:46.841Z,3.53
2019-02-12T18:10:15.541Z,3.63
2019-02-12T18:12:44.107Z,3.50
2019-02-12T18:15:15.045Z,3.20
2019-02-12T18:17:43.782Z,3.50
2019-02-12T18:20:16.611Z,3.80
2019-02-12T18:22:45.304Z,3.90
2019-02-12T18:25:14.306Z,3.27
2019-02-12T18:27:49.026Z,4.57
2019-02-12T18:30:18.395Z,3.40
2019-02-12T18:32:47.215Z,3.70
2019-02-12T18:35:18.933Z,3.57
2019-02-12T18:37:47.633Z,4.07
2019-02-12T18:40:19.585Z,3.43
2019-02-12T18:42:49.496Z,2.83
2019-02-12T18:45:23.533Z,3.43
2019-02-12T18:47:52.011Z,4.10
2019-02-12T18:50:20.464Z,3.10
2019-02-12T18:52:48.902Z,3.20
2019-02-12T18:55:17.411Z,3.87
2019-02-12T18:57:45.851Z,4.10
2019-02-12T19:00:19.430Z,4.30
2019-02-12T19:02:47.867Z,3.20
2019-02-12T19:05:16.315Z,3.90
2019-02-12T19:07:44.747Z,3.37
2019-02-12T19:10:15.303Z,3.00
2019-02-12T19:12:43.759Z,3.40
2019-02-12T19:15:22.243Z,4.03
2019-02-12T19:17:59.720Z,3.60
2019-02-12T19:20:28.204Z,3.80
2019-02-12T19:22:56.647Z,3.70
2019-02-12T19:25:25.114Z,4.10
2019-02-12T19:27:53.603Z,2.90
2019-02-12T19:30:22.052Z,3.00
2019-02-12T19:32:50.488Z,3.43
2019-02-12T19:35:18.937Z,3.07
2019-02-12T19:37:47.364Z,3.60
2019-02-12T19:40:15.807Z,2.67
2019-02-12T19:42:44.243Z,2.73
2019-02-12T19:45:16.842Z,2.90
2019-02-12T19:47:45.282Z,3.27
2019-02-12T19:50:13.737Z,3.30
2019-02-12T19:52:42.171Z,3.77
2019-02-12T19:55:11.064Z,3.20
2019-02-12T19:57:39.502Z,3.17
2019-02-12T20:00:16.884Z,2.97
2019-02-12T20:02:45.319Z,3.30
2019-02-12T20:05:13.834Z,3.43
2019-02-12T20:07:42.263Z,3.03
2019-02-12T20:10:12.161Z,3.57
2019-02-12T20:12:40.612Z,3.13
2019-02-12T20:15:22.205Z,4.00
2019-02-12T20:17:50.645Z,3.90
2019-02-12T20:20:19.100Z,3.73
2019-02-12T20:22:47.545Z,3.67
2019-02-12T20:25:16.034Z,3.70
2019-02-12T20:27:44.500Z,3.47
2019-02-12T20:30:17.967Z,3.80
2019-02-12T20:32:46.484Z,3.20
2019-02-12T20:35:21.860Z,3.27
2019-02-12T20:37:50.790Z,3.27
2019-02-12T20:40:19.502Z,3.00
2019-02-12T20:42:48.435Z,3.10
2019-02-12T20:45:17.978Z,3.17
2019-02-12T20:47:46.727Z,3.90
2019-02-12T20:50:19.597Z,2.93
2019-02-12T20:52:48.177Z,3.20
2019-02-12T20:55:16.714Z,3.30
2019-02-12T20:57:45.354Z,3.37
2019-02-12T21:00:19.726Z,3.17
2019-02-12T21:02:48.178Z,2.67
2019-02-12T21:05:17.214Z,3.13
2019-02-12T21:07:45.784Z,5.33
2019-02-12T21:10:17.004Z,3.57
2019-02-12T21:12:45.705Z,3.27
2019-02-12T21:15:17.467Z,3.03
2019-02-12T21:17:46.059Z,3.53
2019-02-12T21:20:14.694Z,2.70
2019-02-12T21:22:43.273Z,3.40
2019-02-12T21:25:12.916Z,3.30
2019-02-12T21:27:41.507Z,4.20
2019-02-12T21:30:20.419Z,3.47
2019-02-12T21:32:48.922Z,3.73
2019-02-12T21:35:36.767Z,3.50
2019-02-12T21:38:06.947Z,3.20
2019-02-12T21:40:39.162Z,5.00
2019-02-12T21:43:07.779Z,3.97
2019-02-12T21:45:36.670Z,4.53
2019-02-12T21:48:05.400Z,3.10
2019-02-12T21:50:34.043Z,3.90
2019-02-12T21:53:02.571Z,3.77
2019-02-12T21:55:31.020Z,3.37
2019-02-12T21:57:59.540Z,4.03
2019-02-12T22:00:28.530Z,3.57
2019-02-12T22:02:56.959Z,3.00
2019-02-12T22:05:25.407Z,3.13
2019-02-12T22:07:53.851Z,4.60
2019-02-12T22:10:26.909Z,3.20
2019-02-12T22:12:55.336Z,3.33
2019-02-12T22:15:23.788Z,3.50
2019-02-12T22:17:52.222Z,3.10
2019-02-12T22:20:21.410Z,3.97
2019-02-12T22:22:49.854Z,3.20
2019-02-12T22:25:18.373Z,3.43
2019-02-12T22:27:50.307Z,3.77
2019-02-12T22:30:23.948Z,3.60
2019-02-12T22:32:53.400Z,3.53
2019-02-12T22:35:22.022Z,3.50
2019-02-12T22:37:50.799Z,3.27
2019-02-12T22:40:19.763Z,3.83
2019-02-12T22:42:48.489Z,3.77
2019-02-12T22:45:22.294Z,3.83
2019-02-12T22:47:50.944Z,4.03
2019-02-12T22:50:19.442Z,3.90
2019-02-12T22:52:47.935Z,3.60
2019-02-12T22:55:16.370Z,3.70
2019-02-12T22:57:49.364Z,3.73
2019-02-12T23:00:50.269Z,3.60
2019-02-12T23:03:19.316Z,4.13
2019-02-12T23:05:47.827Z,3.60
2019-02-12T23:08:16.266Z,3.40
2019-02-12T23:10:44.715Z,3.47
2019-02-12T23:13:13.218Z,3.97
2019-02-12T23:15:41.671Z,4.07
2019-02-12T23:18:10.103Z,4.23
2019-02-12T23:20:38.538Z,3.67
2019-02-12T23:23:06.982Z,3.40
2019-02-12T23:25:35.426Z,3.90
2019-02-12T23:28:03.871Z,3.83
2019-02-12T23:30:32.304Z,3.70
2019-02-12T23:33:00.754Z,3.93
2019-02-12T23:35:29.194Z,5.73
2019-02-12T23:37:57.643Z,4.00
2019-02-12T23:40:26.080Z,3.90
2019-02-12T23:42:54.533Z,4.83
2019-02-12T23:45:22.971Z,5.17
2019-02-12T23:47:51.426Z,4.47
2019-02-12T23:50:19.863Z,5.07
2019-02-12T23:52:48.309Z,4.53
2019-02-12T23:55:16.747Z,4.50
2019-02-12T23:57:45.194Z,5.23
